Garfield, Kansas
Current Conditions -  °F | °C
As of 10:35 AM on Saturday 22 Nov 2014 (Local Time) from KGBD Reporting Station
Overcast Overcast  
Wind Chill: 40°   Ceiling: 600
Heat Index: 46°   Visibility: 8mi
Dew Point: 43°   Wind: 14mph
Humidity: 87%   Direction: 200°SSW
Pressure: 29.87"   Gusts: NA
Location:  38.08°N, 99.24°W
Report Text: KGBD 221635Z AUTO 20012KT 8SM OVC006 08/06 A2987 RMK AO1
Loading
Personal Weather Stations






























Interactive Weather Map New forecast layout! Learn more

10-Day Weather Forecast

Advertisements
Track Severe Weather on mobile